createdAt,value
2022-11-01T00:27:10.219Z,8.50
2022-11-01T00:57:21.438Z,8.40
2022-11-01T01:27:29.912Z,8.40
2022-11-01T01:57:45.318Z,8.40
2022-11-01T02:28:11.318Z,8.70
2022-11-01T02:58:30.347Z,9.10
2022-11-01T03:28:43.018Z,9.30
2022-11-01T03:58:57.612Z,9.60
2022-11-01T04:29:06.284Z,9.80
2022-11-01T04:59:14.720Z,9.80
2022-11-01T05:29:32.981Z,9.70
2022-11-01T05:59:44.903Z,9.60
2022-11-01T06:30:00.072Z,9.60
2022-11-01T07:00:10.079Z,10.40
2022-11-01T07:30:23.797Z,11.60
2022-11-01T08:31:09.103Z,24.20
2022-11-01T09:01:27.163Z,26.60
2022-11-01T09:31:41.189Z,26.60
2022-11-01T10:01:57.792Z,25.80
2022-11-01T10:32:14.656Z,26.60
2022-11-01T11:02:29.015Z,24.20
2022-11-01T11:32:46.162Z,20.40
2022-11-01T12:02:55.153Z,18.90
2022-11-01T12:33:09.349Z,18.20
2022-11-01T13:03:38.201Z,17.40
2022-11-01T13:34:03.810Z,16.70
2022-11-01T14:04:49.016Z,15.50
2022-11-01T14:35:06.291Z,15.00
2022-11-01T15:05:18.070Z,14.30
2022-11-01T15:35:37.647Z,13.40
2022-11-01T16:05:56.684Z,12.70
2022-11-01T16:36:35.774Z,12.30
2022-11-01T17:06:44.422Z,11.90
2022-11-01T17:36:57.623Z,11.60
2022-11-01T18:07:09.943Z,11.20
2022-11-01T18:37:30.702Z,11.00
2022-11-01T19:08:04.995Z,10.80
2022-11-01T19:38:08.402Z,10.90
2022-11-01T20:08:34.681Z,11.00
2022-11-01T20:38:48.712Z,10.70
2022-11-01T21:09:01.007Z,10.70
2022-11-01T21:39:18.005Z,11.00
2022-11-01T22:09:27.110Z,11.00
2022-11-01T22:39:38.215Z,11.40
2022-11-01T23:09:49.321Z,11.60
2022-11-01T23:39:58.038Z,11.80
